Terminal Aerodrome Forecast
Issued by NWS

Home | Current Version | Previous Version | Text Only | Print | Product List | Glossary On
Versions: 1 2 3 4 5 6 7 8 9 10 11 12 13 14 15 16 17 18 19 20 21 22 23 24 25 26 27 28 29 30 31 32 33 34 35 36 37 38 39 40 41 42 43 44 45 46 47 48 49 50
000
FTUS44 KHGX 260628
TAFIAH
TAFIAH
TAF AMD
KIAH 260628Z 2606/2712 15008KT P6SM -TSRA FEW008 SCT020CB OVC100
      TEMPO 2606/2608 VRB35KT 1SM +TSRA BKN020CB
     FM260900 15008KT P6SM SCT015 BKN025
     FM261500 18010G15KT P6SM VCSH BKN025
     FM261800 16008KT P6SM VCTS BKN035CB
     FM270400 14006KT P6SM SCT025=

USA.gov is the U.S. government's official web portal to all federal, state and local government web resources and services.